TimeEDT,TemperatureF,Dew PointF,Humidity,Sea Level PressureIn,VisibilityMPH,Wind Direction,Wind SpeedMPH,Gust SpeedMPH,PrecipitationIn,Events,Conditions,WindDirDegrees,DateUTC
12:51 AM,60.1,51.1,72,30.10,7.0,SW,5.8,-,N/A,,Clear,220,2012-10-05 04:51:00
1:51 AM,60.1,51.1,72,30.10,7.0,SW,8.1,-,N/A,,Clear,230,2012-10-05 05:51:00
2:51 AM,60.1,51.1,72,30.10,7.0,SW,8.1,-,N/A,,Clear,220,2012-10-05 06:51:00
3:51 AM,60.1,52.0,75,30.08,7.0,SSW,8.1,-,N/A,,Scattered Clouds,210,2012-10-05 07:51:00
4:51 AM,59.0,52.0,78,30.08,7.0,SSW,8.1,-,N/A,,Mostly Cloudy,210,2012-10-05 08:51:00
5:51 AM,60.1,53.1,78,30.09,7.0,SW,6.9,-,N/A,,Overcast,220,2012-10-05 09:51:00
6:51 AM,60.1,53.1,78,30.09,7.0,SW,5.8,-,N/A,,Mostly Cloudy,220,2012-10-05 10:51:00
7:51 AM,59.0,53.1,81,30.10,5.0,SW,6.9,-,N/A,,Haze,220,2012-10-05 11:51:00
8:51 AM,61.0,54.0,78,30.10,5.0,SW,6.9,-,N/A,,Haze,230,2012-10-05 12:51:00
9:51 AM,64.0,54.0,70,30.09,5.0,WSW,9.2,-,N/A,,Haze,240,2012-10-05 13:51:00
10:51 AM,64.9,55.0,70,30.08,6.0,WSW,9.2,-,N/A,,Haze,250,2012-10-05 14:51:00
11:51 AM,68.0,55.0,63,30.07,6.0,West,11.5,-,N/A,,Haze,260,2012-10-05 15:51:00
12:51 PM,66.9,55.0,66,30.06,6.0,WSW,6.9,-,N/A,,Haze,250,2012-10-05 16:51:00
1:51 PM,69.1,55.0,61,30.04,6.0,WSW,9.2,-,N/A,,Haze,250,2012-10-05 17:51:00
2:51 PM,68.0,55.0,63,30.02,6.0,West,6.9,-,N/A,,Haze,280,2012-10-05 18:51:00
3:51 PM,66.9,55.0,66,30.01,7.0,WSW,4.6,-,N/A,,Overcast,250,2012-10-05 19:51:00
4:51 PM,66.0,55.9,70,29.98,7.0,SSW,5.8,-,N/A,,Overcast,210,2012-10-05 20:51:00
5:51 PM,66.9,55.0,66,29.96,7.0,WNW,5.8,-,N/A,,Overcast,290,2012-10-05 21:51:00
6:51 PM,62.1,55.9,80,29.96,5.0,NW,9.2,-,N/A,,Haze,320,2012-10-05 22:51:00
7:30 PM,59.0,55.4,88,29.96,5.0,NNW,11.5,-,0.00,,Overcast,330,2012-10-05 23:30:00
7:45 PM,57.2,53.6,88,29.97,5.0,NNW,10.4,-,0.00,,Overcast,330,2012-10-05 23:45:00
7:51 PM,57.9,54.0,87,29.96,5.0,NW,8.1,-,0.00,Rain,Light Rain,320,2012-10-05 23:51:00
8:51 PM,55.0,51.1,86,29.96,7.0,NW,8.1,-,0.00,,Overcast,320,2012-10-06 00:51:00
9:51 PM,53.1,48.0,83,29.97,8.0,NW,10.4,-,N/A,,Overcast,320,2012-10-06 01:51:00
10:26 PM,51.8,44.6,76,29.97,9.0,NW,12.7,-,N/A,,Overcast,320,2012-10-06 02:26:00
10:51 PM,51.1,44.1,77,29.96,9.0,NNW,8.1,-,N/A,,Overcast,330,2012-10-06 02:51:00
11:34 PM,48.2,46.4,93,29.97,3.0,NW,10.4,-,0.03,Rain,Rain,320,2012-10-06 03:34:00
11:51 PM,48.9,46.0,90,29.95,2.5,NW,6.9,-,0.10,Rain,Heavy Rain,310,2012-10-06 03:51:00